sensor_id;sensor_type;location;lat;lon;timestamp;P1;durP1;ratioP1;P2;durP2;ratioP2
54241;SDS011;40156;51.080;17.082;2023-01-29T00:02:02;8.45;;;4.32;;
54241;SDS011;40156;51.080;17.082;2023-01-29T00:11:35;8.55;;;4.65;;
54241;SDS011;40156;51.080;17.082;2023-01-29T00:14:02;8.95;;;4.35;;
54241;SDS011;40156;51.080;17.082;2023-01-29T00:16:30;9.10;;;5.03;;
54241;SDS011;40156;51.080;17.082;2023-01-29T00:18:59;10.77;;;4.95;;
54241;SDS011;40156;51.080;17.082;2023-01-29T00:21:28;7.97;;;4.32;;
54241;SDS011;40156;51.080;17.082;2023-01-29T00:23:55;9.45;;;5.40;;
54241;SDS011;40156;51.080;17.082;2023-01-29T00:26:24;9.25;;;4.90;;
54241;SDS011;40156;51.080;17.082;2023-01-29T00:28:58;10.63;;;5.18;;
54241;SDS011;40156;51.080;17.082;2023-01-29T00:31:26;10.18;;;5.57;;
54241;SDS011;40156;51.080;17.082;2023-01-29T00:33:54;12.32;;;6.03;;
54241;SDS011;40156;51.080;17.082;2023-01-29T00:36:22;12.10;;;5.60;;
54241;SDS011;40156;51.080;17.082;2023-01-29T00:38:54;14.30;;;6.97;;
54241;SDS011;40156;51.080;17.082;2023-01-29T00:41:29;14.57;;;7.28;;
54241;SDS011;40156;51.080;17.082;2023-01-29T00:43:59;12.88;;;6.93;;
54241;SDS011;40156;51.080;17.082;2023-01-29T00:46:33;17.05;;;7.50;;
54241;SDS011;40156;51.080;17.082;2023-01-29T00:49:08;14.18;;;6.93;;
54241;SDS011;40156;51.080;17.082;2023-01-29T00:51:52;14.63;;;6.88;;
54241;SDS011;40156;51.080;17.082;2023-01-29T00:54:20;22.58;;;8.77;;
54241;SDS011;40156;51.080;17.082;2023-01-29T00:56:49;17.02;;;8.18;;
54241;SDS011;40156;51.080;17.082;2023-01-29T00:59:16;15.02;;;6.68;;
54241;SDS011;40156;51.080;17.082;2023-01-29T01:01:45;17.33;;;8.40;;
54241;SDS011;40156;51.080;17.082;2023-01-29T01:04:21;21.95;;;10.07;;
54241;SDS011;40156;51.080;17.082;2023-01-29T01:06:49;12.68;;;6.72;;
54241;SDS011;40156;51.080;17.082;2023-01-29T01:09:17;13.43;;;7.22;;
54241;SDS011;40156;51.080;17.082;2023-01-29T01:11:44;14.95;;;7.45;;
54241;SDS011;40156;51.080;17.082;2023-01-29T01:14:13;16.30;;;7.20;;
54241;SDS011;40156;51.080;17.082;2023-01-29T01:16:45;17.52;;;7.53;;
54241;SDS011;40156;51.080;17.082;2023-01-29T01:19:13;15.90;;;7.72;;
54241;SDS011;40156;51.080;17.082;2023-01-29T01:21:45;15.18;;;8.00;;
54241;SDS011;40156;51.080;17.082;2023-01-29T01:24:14;17.92;;;7.75;;
54241;SDS011;40156;51.080;17.082;2023-01-29T01:26:43;15.88;;;7.65;;
54241;SDS011;40156;51.080;17.082;2023-01-29T01:29:11;14.40;;;7.68;;
54241;SDS011;40156;51.080;17.082;2023-01-29T01:39:13;19.17;;;8.68;;
54241;SDS011;40156;51.080;17.082;2023-01-29T01:41:54;17.92;;;8.90;;
54241;SDS011;40156;51.080;17.082;2023-01-29T01:47:08;15.88;;;8.02;;
54241;SDS011;40156;51.080;17.082;2023-01-29T01:49:35;22.95;;;9.75;;
54241;SDS011;40156;51.080;17.082;2023-01-29T01:52:03;16.88;;;8.73;;
54241;SDS011;40156;51.080;17.082;2023-01-29T01:54:30;19.52;;;8.27;;
54241;SDS011;40156;51.080;17.082;2023-01-29T01:57:00;17.90;;;8.50;;
54241;SDS011;40156;51.080;17.082;2023-01-29T01:59:28;17.05;;;8.70;;
54241;SDS011;40156;51.080;17.082;2023-01-29T02:01:56;18.35;;;7.72;;
54241;SDS011;40156;51.080;17.082;2023-01-29T02:04:26;19.95;;;8.48;;
54241;SDS011;40156;51.080;17.082;2023-01-29T02:06:54;18.45;;;8.32;;
54241;SDS011;40156;51.080;17.082;2023-01-29T02:12:06;14.40;;;7.88;;
54241;SDS011;40156;51.080;17.082;2023-01-29T02:24:21;12.18;;;5.25;;
54241;SDS011;40156;51.080;17.082;2023-01-29T02:27:06;9.13;;;4.47;;
54241;SDS011;40156;51.080;17.082;2023-01-29T02:32:39;8.27;;;4.07;;
54241;SDS011;40156;51.080;17.082;2023-01-29T02:38:04;8.52;;;4.55;;
54241;SDS011;40156;51.080;17.082;2023-01-29T02:40:51;6.78;;;3.97;;
54241;SDS011;40156;51.080;17.082;2023-01-29T02:43:28;8.45;;;4.15;;
54241;SDS011;40156;51.080;17.082;2023-01-29T02:46:01;8.05;;;4.60;;
54241;SDS011;40156;51.080;17.082;2023-01-29T02:48:36;11.50;;;5.03;;
54241;SDS011;40156;51.080;17.082;2023-01-29T02:51:54;11.05;;;4.65;;
54241;SDS011;40156;51.080;17.082;2023-01-29T02:54:02;9.00;;;4.22;;
54241;SDS011;40156;51.080;17.082;2023-01-29T02:56:35;8.98;;;4.30;;
54241;SDS011;40156;51.080;17.082;2023-01-29T02:59:10;9.07;;;4.07;;
54241;SDS011;40156;51.080;17.082;2023-01-29T03:01:51;8.60;;;4.43;;
54241;SDS011;40156;51.080;17.082;2023-01-29T03:04:21;8.00;;;4.78;;
54241;SDS011;40156;51.080;17.082;2023-01-29T03:06:52;7.78;;;4.20;;
54241;SDS011;40156;51.080;17.082;2023-01-29T03:11:51;13.18;;;5.18;;
54241;SDS011;40156;51.080;17.082;2023-01-29T03:14:24;10.20;;;5.22;;
54241;SDS011;40156;51.080;17.082;2023-01-29T03:16:54;11.00;;;4.85;;
54241;SDS011;40156;51.080;17.082;2023-01-29T03:19:31;9.27;;;5.47;;
54241;SDS011;40156;51.080;17.082;2023-01-29T03:22:00;9.60;;;5.38;;
54241;SDS011;40156;51.080;17.082;2023-01-29T03:27:00;8.15;;;5.00;;
54241;SDS011;40156;51.080;17.082;2023-01-29T03:29:31;11.85;;;4.80;;
54241;SDS011;40156;51.080;17.082;2023-01-29T03:32:01;11.45;;;4.95;;
54241;SDS011;40156;51.080;17.082;2023-01-29T03:34:29;9.95;;;4.47;;
54241;SDS011;40156;51.080;17.082;2023-01-29T03:36:57;11.95;;;5.40;;
54241;SDS011;40156;51.080;17.082;2023-01-29T03:39:26;7.95;;;4.57;;
54241;SDS011;40156;51.080;17.082;2023-01-29T03:41:56;5.72;;;3.60;;
54241;SDS011;40156;51.080;17.082;2023-01-29T03:44:40;10.07;;;5.07;;
54241;SDS011;40156;51.080;17.082;2023-01-29T03:49:51;8.10;;;3.88;;
54241;SDS011;40156;51.080;17.082;2023-01-29T03:55:10;10.27;;;5.05;;
54241;SDS011;40156;51.080;17.082;2023-01-29T04:00:13;10.45;;;4.72;;
54241;SDS011;40156;51.080;17.082;2023-01-29T04:05:29;9.15;;;4.72;;
54241;SDS011;40156;51.080;17.082;2023-01-29T04:08:03;10.90;;;4.55;;
54241;SDS011;40156;51.080;17.082;2023-01-29T04:10:31;9.63;;;4.47;;
54241;SDS011;40156;51.080;17.082;2023-01-29T04:13:01;7.70;;;4.43;;
54241;SDS011;40156;51.080;17.082;2023-01-29T04:15:33;12.63;;;4.43;;
54241;SDS011;40156;51.080;17.082;2023-01-29T04:18:03;7.15;;;4.38;;
54241;SDS011;40156;51.080;17.082;2023-01-29T04:20:30;11.88;;;4.95;;
54241;SDS011;40156;51.080;17.082;2023-01-29T04:22:58;10.45;;;5.43;;
54241;SDS011;40156;51.080;17.082;2023-01-29T04:25:27;8.18;;;4.43;;
54241;SDS011;40156;51.080;17.082;2023-01-29T04:28:01;8.30;;;4.68;;
54241;SDS011;40156;51.080;17.082;2023-01-29T04:30:49;10.88;;;5.25;;
54241;SDS011;40156;51.080;17.082;2023-01-29T04:33:37;8.65;;;4.45;;
54241;SDS011;40156;51.080;17.082;2023-01-29T04:38:58;9.27;;;4.72;;
54241;SDS011;40156;51.080;17.082;2023-01-29T04:47:17;8.80;;;5.20;;
54241;SDS011;40156;51.080;17.082;2023-01-29T04:49:48;10.77;;;5.82;;
54241;SDS011;40156;51.080;17.082;2023-01-29T04:52:34;9.90;;;5.45;;
54241;SDS011;40156;51.080;17.082;2023-01-29T05:00:33;9.82;;;4.88;;
54241;SDS011;40156;51.080;17.082;2023-01-29T05:03:01;10.38;;;5.63;;
54241;SDS011;40156;51.080;17.082;2023-01-29T05:05:29;11.50;;;5.93;;
54241;SDS011;40156;51.080;17.082;2023-01-29T05:07:57;10.68;;;5.10;;
54241;SDS011;40156;51.080;17.082;2023-01-29T05:10:25;10.15;;;5.47;;
54241;SDS011;40156;51.080;17.082;2023-01-29T05:12:55;10.07;;;5.07;;
54241;SDS011;40156;51.080;17.082;2023-01-29T05:15:27;9.20;;;5.30;;
54241;SDS011;40156;51.080;17.082;2023-01-29T05:17:55;11.57;;;5.18;;
54241;SDS011;40156;51.080;17.082;2023-01-29T05:20:23;12.60;;;5.63;;
54241;SDS011;40156;51.080;17.082;2023-01-29T05:22:50;11.25;;;5.32;;
54241;SDS011;40156;51.080;17.082;2023-01-29T05:25:23;8.68;;;4.80;;
54241;SDS011;40156;51.080;17.082;2023-01-29T05:27:51;10.75;;;5.38;;
54241;SDS011;40156;51.080;17.082;2023-01-29T05:30:19;7.57;;;4.88;;
54241;SDS011;40156;51.080;17.082;2023-01-29T05:32:46;10.23;;;5.38;;
54241;SDS011;40156;51.080;17.082;2023-01-29T05:35:14;13.13;;;4.88;;
54241;SDS011;40156;51.080;17.082;2023-01-29T05:37:41;11.00;;;5.47;;
54241;SDS011;40156;51.080;17.082;2023-01-29T05:40:09;8.30;;;5.07;;
54241;SDS011;40156;51.080;17.082;2023-01-29T05:42:37;10.85;;;4.53;;
54241;SDS011;40156;51.080;17.082;2023-01-29T05:45:04;10.23;;;5.30;;
54241;SDS011;40156;51.080;17.082;2023-01-29T05:47:32;13.48;;;5.45;;
54241;SDS011;40156;51.080;17.082;2023-01-29T05:50:00;10.70;;;5.15;;
54241;SDS011;40156;51.080;17.082;2023-01-29T05:52:27;7.97;;;4.78;;
54241;SDS011;40156;51.080;17.082;2023-01-29T05:54:55;11.68;;;5.40;;
54241;SDS011;40156;51.080;17.082;2023-01-29T05:57:22;12.00;;;5.45;;
54241;SDS011;40156;51.080;17.082;2023-01-29T05:59:50;9.43;;;4.93;;
54241;SDS011;40156;51.080;17.082;2023-01-29T06:02:17;11.55;;;5.35;;
54241;SDS011;40156;51.080;17.082;2023-01-29T06:04:45;11.57;;;5.57;;
54241;SDS011;40156;51.080;17.082;2023-01-29T06:07:12;12.05;;;5.72;;
54241;SDS011;40156;51.080;17.082;2023-01-29T06:09:40;15.27;;;6.35;;
54241;SDS011;40156;51.080;17.082;2023-01-29T06:12:07;9.25;;;5.25;;
54241;SDS011;40156;51.080;17.082;2023-01-29T06:14:35;14.27;;;5.30;;
54241;SDS011;40156;51.080;17.082;2023-01-29T06:17:03;9.82;;;5.47;;
54241;SDS011;40156;51.080;17.082;2023-01-29T06:19:30;14.82;;;6.13;;
54241;SDS011;40156;51.080;17.082;2023-01-29T06:21:58;12.38;;;6.20;;
54241;SDS011;40156;51.080;17.082;2023-01-29T06:24:26;11.80;;;5.40;;
54241;SDS011;40156;51.080;17.082;2023-01-29T06:26:53;10.93;;;5.47;;
54241;SDS011;40156;51.080;17.082;2023-01-29T06:29:21;9.95;;;5.38;;
54241;SDS011;40156;51.080;17.082;2023-01-29T06:31:48;13.77;;;5.72;;
54241;SDS011;40156;51.080;17.082;2023-01-29T06:34:16;10.13;;;5.25;;
54241;SDS011;40156;51.080;17.082;2023-01-29T06:36:44;11.82;;;5.82;;
54241;SDS011;40156;51.080;17.082;2023-01-29T06:39:11;12.80;;;6.03;;
54241;SDS011;40156;51.080;17.082;2023-01-29T06:41:39;11.15;;;5.57;;
54241;SDS011;40156;51.080;17.082;2023-01-29T06:44:06;11.20;;;5.22;;
54241;SDS011;40156;51.080;17.082;2023-01-29T06:46:34;9.65;;;5.05;;
54241;SDS011;40156;51.080;17.082;2023-01-29T06:49:02;8.85;;;4.97;;
54241;SDS011;40156;51.080;17.082;2023-01-29T06:51:29;12.32;;;5.15;;
54241;SDS011;40156;51.080;17.082;2023-01-29T06:53:57;11.00;;;4.85;;
54241;SDS011;40156;51.080;17.082;2023-01-29T06:56:24;8.85;;;4.95;;
54241;SDS011;40156;51.080;17.082;2023-01-29T06:58:52;8.85;;;4.75;;
54241;SDS011;40156;51.080;17.082;2023-01-29T07:04:52;11.73;;;5.70;;
54241;SDS011;40156;51.080;17.082;2023-01-29T07:07:19;9.95;;;5.65;;
54241;SDS011;40156;51.080;17.082;2023-01-29T07:09:47;11.05;;;5.47;;
54241;SDS011;40156;51.080;17.082;2023-01-29T07:12:14;11.55;;;5.13;;
54241;SDS011;40156;51.080;17.082;2023-01-29T07:14:42;12.73;;;6.05;;
54241;SDS011;40156;51.080;17.082;2023-01-29T07:17:09;11.48;;;5.53;;
54241;SDS011;40156;51.080;17.082;2023-01-29T07:19:37;11.77;;;5.88;;
54241;SDS011;40156;51.080;17.082;2023-01-29T07:22:04;16.02;;;6.25;;
54241;SDS011;40156;51.080;17.082;2023-01-29T07:24:32;11.02;;;5.75;;
54241;SDS011;40156;51.080;17.082;2023-01-29T07:27:00;12.57;;;6.03;;
54241;SDS011;40156;51.080;17.082;2023-01-29T07:29:27;10.23;;;5.55;;
54241;SDS011;40156;51.080;17.082;2023-01-29T07:31:55;14.55;;;6.03;;
54241;SDS011;40156;51.080;17.082;2023-01-29T07:34:23;11.82;;;5.60;;
54241;SDS011;40156;51.080;17.082;2023-01-29T07:36:53;11.25;;;5.93;;
54241;SDS011;40156;51.080;17.082;2023-01-29T07:39:21;10.80;;;5.35;;
54241;SDS011;40156;51.080;17.082;2023-01-29T07:41:49;9.10;;;5.32;;
54241;SDS011;40156;51.080;17.082;2023-01-29T07:44:16;11.40;;;5.43;;
54241;SDS011;40156;51.080;17.082;2023-01-29T07:46:44;10.38;;;4.95;;
54241;SDS011;40156;51.080;17.082;2023-01-29T07:49:11;12.82;;;5.13;;
54241;SDS011;40156;51.080;17.082;2023-01-29T07:51:39;10.95;;;5.25;;
54241;SDS011;40156;51.080;17.082;2023-01-29T07:54:06;9.70;;;4.72;;
54241;SDS011;40156;51.080;17.082;2023-01-29T07:56:34;12.57;;;5.72;;
54241;SDS011;40156;51.080;17.082;2023-01-29T07:59:01;12.07;;;4.95;;
54241;SDS011;40156;51.080;17.082;2023-01-29T08:01:29;9.32;;;4.43;;
54241;SDS011;40156;51.080;17.082;2023-01-29T08:03:57;8.48;;;5.03;;
54241;SDS011;40156;51.080;17.082;2023-01-29T08:06:25;8.52;;;4.60;;
54241;SDS011;40156;51.080;17.082;2023-01-29T08:08:52;9.77;;;4.80;;
54241;SDS011;40156;51.080;17.082;2023-01-29T08:11:20;10.32;;;4.80;;
54241;SDS011;40156;51.080;17.082;2023-01-29T08:13:47;8.15;;;4.93;;
54241;SDS011;40156;51.080;17.082;2023-01-29T08:16:15;10.68;;;4.72;;
54241;SDS011;40156;51.080;17.082;2023-01-29T08:18:42;9.13;;;4.72;;
54241;SDS011;40156;51.080;17.082;2023-01-29T08:21:10;9.80;;;5.07;;
54241;SDS011;40156;51.080;17.082;2023-01-29T08:23:40;12.88;;;5.93;;
54241;SDS011;40156;51.080;17.082;2023-01-29T08:26:07;13.90;;;6.35;;
54241;SDS011;40156;51.080;17.082;2023-01-29T08:28:35;12.63;;;5.35;;
54241;SDS011;40156;51.080;17.082;2023-01-29T08:31:04;14.20;;;7.07;;
54241;SDS011;40156;51.080;17.082;2023-01-29T08:33:31;11.35;;;6.00;;
54241;SDS011;40156;51.080;17.082;2023-01-29T08:36:06;19.15;;;8.88;;
54241;SDS011;40156;51.080;17.082;2023-01-29T08:38:34;16.60;;;7.10;;
54241;SDS011;40156;51.080;17.082;2023-01-29T08:41:02;14.38;;;6.85;;
54241;SDS011;40156;51.080;17.082;2023-01-29T08:43:29;15.65;;;7.40;;
54241;SDS011;40156;51.080;17.082;2023-01-29T08:45:57;13.40;;;6.88;;
54241;SDS011;40156;51.080;17.082;2023-01-29T08:48:24;13.48;;;6.18;;
54241;SDS011;40156;51.080;17.082;2023-01-29T08:50:54;11.18;;;5.65;;
54241;SDS011;40156;51.080;17.082;2023-01-29T08:53:23;10.35;;;5.57;;
54241;SDS011;40156;51.080;17.082;2023-01-29T08:55:50;10.43;;;5.53;;
54241;SDS011;40156;51.080;17.082;2023-01-29T08:58:18;11.52;;;5.20;;
54241;SDS011;40156;51.080;17.082;2023-01-29T09:00:46;12.02;;;5.10;;
54241;SDS011;40156;51.080;17.082;2023-01-29T09:03:13;10.52;;;5.18;;
54241;SDS011;40156;51.080;17.082;2023-01-29T09:05:41;11.80;;;5.88;;
54241;SDS011;40156;51.080;17.082;2023-01-29T09:08:08;9.45;;;5.13;;
54241;SDS011;40156;51.080;17.082;2023-01-29T09:10:36;9.55;;;5.00;;
54241;SDS011;40156;51.080;17.082;2023-01-29T09:13:04;11.75;;;5.63;;
54241;SDS011;40156;51.080;17.082;2023-01-29T09:15:31;9.57;;;4.68;;
54241;SDS011;40156;51.080;17.082;2023-01-29T09:18:01;10.10;;;5.05;;
54241;SDS011;40156;51.080;17.082;2023-01-29T09:20:29;10.45;;;5.68;;
54241;SDS011;40156;51.080;17.082;2023-01-29T09:22:56;11.00;;;5.32;;
54241;SDS011;40156;51.080;17.082;2023-01-29T09:25:24;9.77;;;5.07;;
54241;SDS011;40156;51.080;17.082;2023-01-29T09:27:53;11.65;;;5.68;;
54241;SDS011;40156;51.080;17.082;2023-01-29T09:30:20;11.88;;;5.25;;
54241;SDS011;40156;51.080;17.082;2023-01-29T09:32:48;11.00;;;5.60;;
54241;SDS011;40156;51.080;17.082;2023-01-29T09:35:21;13.90;;;5.75;;
54241;SDS011;40156;51.080;17.082;2023-01-29T09:37:49;11.98;;;5.65;;
54241;SDS011;40156;51.080;17.082;2023-01-29T09:42:53;12.40;;;6.32;;
54241;SDS011;40156;51.080;17.082;2023-01-29T09:45:22;11.98;;;5.63;;
54241;SDS011;40156;51.080;17.082;2023-01-29T09:47:50;10.95;;;5.25;;
54241;SDS011;40156;51.080;17.082;2023-01-29T09:50:35;11.45;;;5.78;;
54241;SDS011;40156;51.080;17.082;2023-01-29T09:56:05;12.27;;;6.13;;
54241;SDS011;40156;51.080;17.082;2023-01-29T09:58:32;11.07;;;6.13;;
54241;SDS011;40156;51.080;17.082;2023-01-29T10:06:22;14.40;;;6.03;;
54241;SDS011;40156;51.080;17.082;2023-01-29T10:11:28;14.07;;;5.88;;
54241;SDS011;40156;51.080;17.082;2023-01-29T10:21:49;13.40;;;6.90;;
54241;SDS011;40156;51.080;17.082;2023-01-29T10:24:25;13.85;;;5.95;;
54241;SDS011;40156;51.080;17.082;2023-01-29T10:26:56;12.55;;;6.03;;
54241;SDS011;40156;51.080;17.082;2023-01-29T10:29:25;10.00;;;5.28;;
54241;SDS011;40156;51.080;17.082;2023-01-29T10:31:55;10.57;;;5.90;;
54241;SDS011;40156;51.080;17.082;2023-01-29T10:34:29;9.80;;;6.18;;
54241;SDS011;40156;51.080;17.082;2023-01-29T10:36:59;14.40;;;7.10;;
54241;SDS011;40156;51.080;17.082;2023-01-29T10:39:28;13.57;;;6.13;;
54241;SDS011;40156;51.080;17.082;2023-01-29T10:44:43;14.90;;;6.85;;
54241;SDS011;40156;51.080;17.082;2023-01-29T10:57:50;13.10;;;6.78;;
54241;SDS011;40156;51.080;17.082;2023-01-29T11:00:25;13.60;;;6.45;;
54241;SDS011;40156;51.080;17.082;2023-01-29T11:02:54;10.20;;;5.53;;
54241;SDS011;40156;51.080;17.082;2023-01-29T11:05:24;15.98;;;6.88;;
54241;SDS011;40156;51.080;17.082;2023-01-29T11:07:56;16.50;;;6.70;;
54241;SDS011;40156;51.080;17.082;2023-01-29T11:10:27;9.05;;;5.57;;
54241;SDS011;40156;51.080;17.082;2023-01-29T11:12:55;11.82;;;5.53;;
54241;SDS011;40156;51.080;17.082;2023-01-29T11:15:25;12.68;;;5.90;;
54241;SDS011;40156;51.080;17.082;2023-01-29T11:18:01;10.35;;;4.80;;
54241;SDS011;40156;51.080;17.082;2023-01-29T11:20:30;11.20;;;4.50;;
54241;SDS011;40156;51.080;17.082;2023-01-29T11:22:58;10.63;;;5.15;;
54241;SDS011;40156;51.080;17.082;2023-01-29T11:25:25;11.10;;;6.00;;
54241;SDS011;40156;51.080;17.082;2023-01-29T11:27:54;11.82;;;5.43;;
54241;SDS011;40156;51.080;17.082;2023-01-29T11:30:23;11.05;;;5.75;;
54241;SDS011;40156;51.080;17.082;2023-01-29T11:35:31;8.85;;;5.43;;
54241;SDS011;40156;51.080;17.082;2023-01-29T11:38:16;10.15;;;5.28;;
54241;SDS011;40156;51.080;17.082;2023-01-29T11:40:46;10.48;;;5.00;;
54241;SDS011;40156;51.080;17.082;2023-01-29T11:43:22;10.00;;;5.30;;
54241;SDS011;40156;51.080;17.082;2023-01-29T11:46:05;13.82;;;5.20;;
54241;SDS011;40156;51.080;17.082;2023-01-29T11:51:07;9.45;;;4.88;;
54241;SDS011;40156;51.080;17.082;2023-01-29T11:53:37;8.63;;;4.85;;
54241;SDS011;40156;51.080;17.082;2023-01-29T11:58:54;7.22;;;4.18;;
54241;SDS011;40156;51.080;17.082;2023-01-29T12:01:33;9.50;;;4.40;;
54241;SDS011;40156;51.080;17.082;2023-01-29T12:04:03;13.60;;;5.35;;
54241;SDS011;40156;51.080;17.082;2023-01-29T12:06:40;8.25;;;4.38;;
54241;SDS011;40156;51.080;17.082;2023-01-29T12:09:09;11.43;;;4.65;;
54241;SDS011;40156;51.080;17.082;2023-01-29T12:11:37;10.23;;;4.70;;
54241;SDS011;40156;51.080;17.082;2023-01-29T12:14:28;9.38;;;4.82;;
54241;SDS011;40156;51.080;17.082;2023-01-29T12:17:14;9.27;;;4.47;;
54241;SDS011;40156;51.080;17.082;2023-01-29T12:22:21;8.70;;;4.25;;
54241;SDS011;40156;51.080;17.082;2023-01-29T12:24:52;7.75;;;4.05;;
54241;SDS011;40156;51.080;17.082;2023-01-29T12:30:21;8.45;;;4.15;;
54241;SDS011;40156;51.080;17.082;2023-01-29T12:32:53;7.25;;;3.55;;
54241;SDS011;40156;51.080;17.082;2023-01-29T12:35:31;8.98;;;4.45;;
54241;SDS011;40156;51.080;17.082;2023-01-29T12:38:04;8.98;;;4.10;;
54241;SDS011;40156;51.080;17.082;2023-01-29T12:40:40;7.57;;;3.83;;
54241;SDS011;40156;51.080;17.082;2023-01-29T12:43:16;8.00;;;3.75;;
54241;SDS011;40156;51.080;17.082;2023-01-29T12:45:47;9.40;;;4.03;;
54241;SDS011;40156;51.080;17.082;2023-01-29T12:48:19;7.88;;;4.00;;
54241;SDS011;40156;51.080;17.082;2023-01-29T12:50:50;8.60;;;3.80;;
54241;SDS011;40156;51.080;17.082;2023-01-29T12:53:24;9.20;;;4.55;;
54241;SDS011;40156;51.080;17.082;2023-01-29T12:55:55;12.77;;;4.95;;
54241;SDS011;40156;51.080;17.082;2023-01-29T12:58:28;10.00;;;4.63;;
54241;SDS011;40156;51.080;17.082;2023-01-29T13:01:11;11.60;;;4.85;;
54241;SDS011;40156;51.080;17.082;2023-01-29T13:03:47;15.68;;;5.00;;
54241;SDS011;40156;51.080;17.082;2023-01-29T13:06:17;9.90;;;3.88;;
54241;SDS011;40156;51.080;17.082;2023-01-29T13:08:47;10.60;;;5.13;;
54241;SDS011;40156;51.080;17.082;2023-01-29T13:11:36;14.35;;;4.82;;
54241;SDS011;40156;51.080;17.082;2023-01-29T13:16:41;9.00;;;4.30;;
54241;SDS011;40156;51.080;17.082;2023-01-29T13:21:43;11.85;;;4.68;;
54241;SDS011;40156;51.080;17.082;2023-01-29T13:24:13;10.95;;;5.43;;
54241;SDS011;40156;51.080;17.082;2023-01-29T13:26:47;10.93;;;4.93;;
54241;SDS011;40156;51.080;17.082;2023-01-29T13:29:25;9.80;;;5.28;;
54241;SDS011;40156;51.080;17.082;2023-01-29T13:32:04;15.15;;;5.30;;
54241;SDS011;40156;51.080;17.082;2023-01-29T13:34:34;12.10;;;5.75;;
54241;SDS011;40156;51.080;17.082;2023-01-29T13:37:10;13.02;;;5.60;;
54241;SDS011;40156;51.080;17.082;2023-01-29T13:44:50;11.98;;;6.07;;
54241;SDS011;40156;51.080;17.082;2023-01-29T13:47:28;10.38;;;4.82;;
54241;SDS011;40156;51.080;17.082;2023-01-29T13:57:48;11.93;;;5.47;;
54241;SDS011;40156;51.080;17.082;2023-01-29T14:03:31;10.07;;;5.25;;
54241;SDS011;40156;51.080;17.082;2023-01-29T14:05:42;11.68;;;5.80;;
54241;SDS011;40156;51.080;17.082;2023-01-29T14:10:41;10.55;;;5.40;;
54241;SDS011;40156;51.080;17.082;2023-01-29T14:16:24;13.02;;;6.38;;
54241;SDS011;40156;51.080;17.082;2023-01-29T14:18:34;15.75;;;6.20;;
54241;SDS011;40156;51.080;17.082;2023-01-29T14:21:03;13.02;;;6.03;;
54241;SDS011;40156;51.080;17.082;2023-01-29T14:26:04;17.35;;;6.20;;
54241;SDS011;40156;51.080;17.082;2023-01-29T14:28:32;13.98;;;6.13;;
54241;SDS011;40156;51.080;17.082;2023-01-29T14:31:01;14.00;;;6.43;;
54241;SDS011;40156;51.080;17.082;2023-01-29T14:33:35;14.93;;;7.32;;
54241;SDS011;40156;51.080;17.082;2023-01-29T14:36:13;16.52;;;7.03;;
54241;SDS011;40156;51.080;17.082;2023-01-29T14:38:46;14.25;;;7.10;;
54241;SDS011;40156;51.080;17.082;2023-01-29T14:43:44;17.90;;;7.57;;
54241;SDS011;40156;51.080;17.082;2023-01-29T14:52:37;17.65;;;6.95;;
54241;SDS011;40156;51.080;17.082;2023-01-29T14:55:39;22.23;;;9.18;;
54241;SDS011;40156;51.080;17.082;2023-01-29T14:58:37;16.98;;;7.30;;
54241;SDS011;40156;51.080;17.082;2023-01-29T15:01:30;16.80;;;6.93;;
54241;SDS011;40156;51.080;17.082;2023-01-29T15:04:54;16.90;;;6.97;;
54241;SDS011;40156;51.080;17.082;2023-01-29T15:13:23;15.65;;;6.93;;
54241;SDS011;40156;51.080;17.082;2023-01-29T15:16:20;15.10;;;7.18;;
54241;SDS011;40156;51.080;17.082;2023-01-29T15:19:18;12.50;;;6.07;;
54241;SDS011;40156;51.080;17.082;2023-01-29T15:25:08;18.10;;;7.40;;
54241;SDS011;40156;51.080;17.082;2023-01-29T15:28:02;18.88;;;7.72;;
54241;SDS011;40156;51.080;17.082;2023-01-29T15:30:53;19.40;;;7.82;;
54241;SDS011;40156;51.080;17.082;2023-01-29T15:33:43;14.93;;;7.10;;
54241;SDS011;40156;51.080;17.082;2023-01-29T15:36:35;16.73;;;8.20;;
54241;SDS011;40156;51.080;17.082;2023-01-29T15:39:24;19.65;;;7.90;;
54241;SDS011;40156;51.080;17.082;2023-01-29T15:42:13;17.10;;;6.88;;
54241;SDS011;40156;51.080;17.082;2023-01-29T15:45:02;18.90;;;7.50;;
54241;SDS011;40156;51.080;17.082;2023-01-29T15:47:53;16.95;;;7.05;;
54241;SDS011;40156;51.080;17.082;2023-01-29T15:50:45;14.18;;;6.57;;
54241;SDS011;40156;51.080;17.082;2023-01-29T15:53:34;11.30;;;6.50;;
54241;SDS011;40156;51.080;17.082;2023-01-29T15:56:36;18.55;;;7.85;;
54241;SDS011;40156;51.080;17.082;2023-01-29T16:02:41;15.55;;;6.43;;
54241;SDS011;40156;51.080;17.082;2023-01-29T16:05:13;19.03;;;8.00;;
54241;SDS011;40156;51.080;17.082;2023-01-29T16:07:42;13.77;;;7.15;;
54241;SDS011;40156;51.080;17.082;2023-01-29T16:12:45;17.13;;;7.47;;
54241;SDS011;40156;51.080;17.082;2023-01-29T16:15:20;18.13;;;7.57;;
54241;SDS011;40156;51.080;17.082;2023-01-29T16:17:50;15.15;;;7.13;;
54241;SDS011;40156;51.080;17.082;2023-01-29T16:20:25;16.55;;;7.50;;
54241;SDS011;40156;51.080;17.082;2023-01-29T16:22:53;16.40;;;7.78;;
54241;SDS011;40156;51.080;17.082;2023-01-29T16:25:24;15.18;;;7.03;;
54241;SDS011;40156;51.080;17.082;2023-01-29T16:27:52;15.93;;;6.82;;
54241;SDS011;40156;51.080;17.082;2023-01-29T16:30:22;19.35;;;7.60;;
54241;SDS011;40156;51.080;17.082;2023-01-29T16:32:51;16.77;;;7.80;;
54241;SDS011;40156;51.080;17.082;2023-01-29T16:35:19;19.42;;;8.40;;
54241;SDS011;40156;51.080;17.082;2023-01-29T16:37:47;22.20;;;8.23;;
54241;SDS011;40156;51.080;17.082;2023-01-29T16:40:28;18.15;;;8.13;;
54241;SDS011;40156;51.080;17.082;2023-01-29T16:46:02;20.30;;;9.57;;
54241;SDS011;40156;51.080;17.082;2023-01-29T16:48:31;21.10;;;8.60;;
54241;SDS011;40156;51.080;17.082;2023-01-29T16:51:10;20.08;;;8.07;;
54241;SDS011;40156;51.080;17.082;2023-01-29T16:53:38;19.65;;;8.98;;
54241;SDS011;40156;51.080;17.082;2023-01-29T16:56:06;19.45;;;8.32;;
54241;SDS011;40156;51.080;17.082;2023-01-29T16:58:34;19.85;;;8.73;;
54241;SDS011;40156;51.080;17.082;2023-01-29T17:01:03;16.95;;;8.02;;
54241;SDS011;40156;51.080;17.082;2023-01-29T17:03:31;21.17;;;9.25;;
54241;SDS011;40156;51.080;17.082;2023-01-29T17:06:12;17.58;;;8.07;;
54241;SDS011;40156;51.080;17.082;2023-01-29T17:08:45;21.75;;;8.88;;
54241;SDS011;40156;51.080;17.082;2023-01-29T17:11:13;19.08;;;9.48;;
54241;SDS011;40156;51.080;17.082;2023-01-29T17:13:49;20.73;;;9.32;;
54241;SDS011;40156;51.080;17.082;2023-01-29T17:16:21;18.13;;;8.43;;
54241;SDS011;40156;51.080;17.082;2023-01-29T17:18:49;19.40;;;8.55;;
54241;SDS011;40156;51.080;17.082;2023-01-29T17:21:17;20.40;;;9.00;;
54241;SDS011;40156;51.080;17.082;2023-01-29T17:23:45;23.52;;;10.40;;
54241;SDS011;40156;51.080;17.082;2023-01-29T17:26:13;23.40;;;10.00;;
54241;SDS011;40156;51.080;17.082;2023-01-29T17:28:40;27.55;;;10.80;;
54241;SDS011;40156;51.080;17.082;2023-01-29T17:31:08;26.30;;;10.35;;
54241;SDS011;40156;51.080;17.082;2023-01-29T17:33:40;24.13;;;10.85;;
54241;SDS011;40156;51.080;17.082;2023-01-29T17:36:12;28.08;;;11.77;;
54241;SDS011;40156;51.080;17.082;2023-01-29T17:38:39;22.73;;;11.43;;
54241;SDS011;40156;51.080;17.082;2023-01-29T17:41:17;25.25;;;10.73;;
54241;SDS011;40156;51.080;17.082;2023-01-29T17:43:44;24.50;;;10.98;;